createdAt,value
2023-01-19T00:02:21.815Z,100737.47
2023-01-19T00:04:51.519Z,100747.06
2023-01-19T00:07:20.721Z,100744.69
2023-01-19T00:09:52.935Z,100734.06
2023-01-19T00:12:22.046Z,100731.56
2023-01-19T00:14:54.111Z,100734.06
2023-01-19T00:17:23.158Z,100731.38
2023-01-19T00:19:52.162Z,100736.38
2023-01-19T00:22:21.216Z,100740.97
2023-01-19T00:24:51.941Z,100748.59
2023-01-19T00:27:24.760Z,100746.09
2023-01-19T00:29:58.215Z,100754.31
2023-01-19T00:32:27.887Z,100761.94
2023-01-19T00:34:56.976Z,100774.22
2023-01-19T00:37:25.905Z,100775.00
2023-01-19T00:39:54.906Z,100784.44
2023-01-19T00:42:41.936Z,100781.16
2023-01-19T00:45:17.658Z,100789.03
2023-01-19T00:47:47.481Z,100797.50
2023-01-19T00:50:18.604Z,100812.59
2023-01-19T00:52:48.222Z,100802.91
2023-01-19T00:55:25.936Z,100806.19
2023-01-19T00:57:56.253Z,100802.13
2023-01-19T01:00:32.024Z,100806.25
2023-01-19T01:07:24.287Z,100806.47
2023-01-19T01:09:53.407Z,100816.56
2023-01-19T01:12:22.855Z,100814.00
2023-01-19T01:14:54.868Z,100824.53
2023-01-19T01:17:27.815Z,100823.03
2023-01-19T01:19:57.592Z,100826.53
2023-01-19T01:22:26.662Z,100820.03
2023-01-19T01:24:55.646Z,100831.84
2023-01-19T01:27:38.826Z,100823.72
2023-01-19T01:30:26.400Z,100824.13
2023-01-19T01:33:05.482Z,100826.06
2023-01-19T01:35:35.105Z,100836.91
2023-01-19T01:38:06.192Z,100834.81
2023-01-19T01:40:35.579Z,100849.28
2023-01-19T01:43:15.470Z,100847.66
2023-01-19T01:45:45.597Z,100858.47
2023-01-19T01:48:23.188Z,100863.41
2023-01-19T01:51:19.982Z,100866.91
2023-01-19T01:53:55.903Z,100873.59
2023-01-19T01:56:35.991Z,100874.97
2023-01-19T01:59:12.661Z,100879.97
2023-01-19T02:02:00.385Z,100889.72
2023-01-19T02:04:31.708Z,100897.00
2023-01-19T02:07:19.123Z,100919.50
2023-01-19T02:10:13.708Z,100931.88
2023-01-19T02:17:36.890Z,100923.88
2023-01-19T02:20:27.772Z,100925.00
2023-01-19T02:30:06.660Z,100932.09
2023-01-19T02:32:42.200Z,100930.16
2023-01-19T02:35:13.150Z,100926.16
2023-01-19T02:37:53.898Z,100943.22
2023-01-19T02:40:55.891Z,100935.59
2023-01-19T02:43:26.175Z,100938.72
2023-01-19T02:45:55.464Z,100943.97
2023-01-19T02:48:24.476Z,100945.09
2023-01-19T02:51:00.388Z,100954.94
2023-01-19T02:53:55.547Z,100962.66
2023-01-19T02:56:57.750Z,100954.75
2023-01-19T02:59:36.515Z,100962.78
2023-01-19T03:02:24.845Z,100956.38
2023-01-19T03:05:15.375Z,100969.59
2023-01-19T03:08:09.456Z,100966.19
2023-01-19T03:10:59.544Z,100962.09
2023-01-19T03:13:46.668Z,100976.59
2023-01-19T03:17:03.405Z,100981.72
2023-01-19T03:19:44.811Z,100982.22
2023-01-19T03:22:31.875Z,100976.53
2023-01-19T03:25:04.822Z,100974.81
2023-01-19T03:27:44.205Z,100977.78
2023-01-19T03:30:21.627Z,100983.44
2023-01-19T03:32:55.630Z,100982.00
2023-01-19T03:35:51.620Z,100979.69
2023-01-19T03:39:01.112Z,100975.00
2023-01-19T03:41:48.090Z,100978.88
2023-01-19T03:44:18.180Z,100985.06
2023-01-19T03:46:48.951Z,100993.19
2023-01-19T03:49:23.174Z,100985.41
2023-01-19T03:51:57.689Z,101002.78
2023-01-19T03:54:29.253Z,101012.38
2023-01-19T03:57:05.005Z,101019.19
2023-01-19T04:00:20.195Z,101023.13
2023-01-19T04:02:49.335Z,101029.19
2023-01-19T04:05:18.335Z,101034.09
2023-01-19T04:07:51.676Z,101033.78
2023-01-19T04:10:21.613Z,101036.84
2023-01-19T04:12:50.809Z,101048.09
2023-01-19T04:15:20.585Z,101059.72
2023-01-19T04:17:49.704Z,101065.75
2023-01-19T04:20:19.260Z,101061.19
2023-01-19T04:22:50.037Z,101056.09
2023-01-19T04:25:19.605Z,101060.25
2023-01-19T04:27:54.209Z,101060.66
2023-01-19T04:30:24.798Z,101063.56
2023-01-19T04:32:57.144Z,101062.69
2023-01-19T04:35:29.617Z,101064.31
2023-01-19T04:37:58.750Z,101061.16
2023-01-19T04:40:30.938Z,101059.59
2023-01-19T04:43:02.941Z,101064.53
2023-01-19T04:45:35.742Z,101071.31
2023-01-19T04:48:06.608Z,101069.41
2023-01-19T04:50:36.581Z,101072.88
2023-01-19T04:53:06.214Z,101079.56
2023-01-19T04:55:35.593Z,101093.06
2023-01-19T04:58:04.554Z,101093.25
2023-01-19T05:00:34.648Z,101107.81
2023-01-19T05:03:04.136Z,101119.41
2023-01-19T05:05:34.067Z,101119.28
2023-01-19T05:08:03.263Z,101122.00
2023-01-19T05:10:32.540Z,101121.78
2023-01-19T05:13:01.942Z,101122.22
2023-01-19T05:15:31.240Z,101112.78
2023-01-19T05:18:00.253Z,101124.59
2023-01-19T05:20:29.447Z,101126.97
2023-01-19T05:22:58.912Z,101136.34
2023-01-19T05:25:28.022Z,101146.94
2023-01-19T05:27:56.996Z,101150.81
2023-01-19T05:30:26.040Z,101150.31
2023-01-19T05:32:55.416Z,101151.94
2023-01-19T05:35:35.627Z,101153.19
2023-01-19T05:38:05.586Z,101155.25
2023-01-19T05:40:35.605Z,101152.44
2023-01-19T05:43:05.797Z,101167.56
2023-01-19T05:45:35.460Z,101168.31
2023-01-19T05:48:04.489Z,101183.88
2023-01-19T05:50:34.180Z,101178.81
2023-01-19T05:53:05.945Z,101186.16
2023-01-19T05:55:35.040Z,101189.44
2023-01-19T05:58:04.620Z,101190.34
2023-01-19T06:00:33.586Z,101189.38
2023-01-19T06:03:03.252Z,101203.56
2023-01-19T06:05:32.763Z,101201.59
2023-01-19T06:08:01.817Z,101210.38
2023-01-19T06:10:31.268Z,101224.69
2023-01-19T06:13:01.426Z,101228.97
2023-01-19T06:15:30.703Z,101232.13
2023-01-19T06:17:59.652Z,101241.13
2023-01-19T06:20:28.688Z,101246.91
2023-01-19T06:23:00.988Z,101243.19
2023-01-19T06:25:30.454Z,101263.66
2023-01-19T06:27:59.859Z,101270.53
2023-01-19T06:30:29.908Z,101275.88
2023-01-19T06:32:59.157Z,101286.72
2023-01-19T06:35:28.213Z,101281.19
2023-01-19T06:37:57.185Z,101292.81
2023-01-19T06:40:26.417Z,101293.38
2023-01-19T06:42:55.371Z,101298.69
2023-01-19T06:45:26.786Z,101307.75
2023-01-19T06:47:55.899Z,101308.78
2023-01-19T06:50:24.840Z,101312.69
2023-01-19T06:52:54.261Z,101315.59
2023-01-19T06:55:23.337Z,101316.69
2023-01-19T06:57:59.575Z,101325.25
2023-01-19T07:00:30.568Z,101320.38
2023-01-19T07:03:00.006Z,101329.25
2023-01-19T07:05:29.756Z,101322.63
2023-01-19T07:07:59.150Z,101330.09
2023-01-19T07:11:26.784Z,101336.91
2023-01-19T07:13:18.069Z,101339.81
2023-01-19T07:15:47.340Z,101344.66
2023-01-19T07:18:16.373Z,101342.84
2023-01-19T07:20:47.632Z,101345.25
2023-01-19T07:23:17.595Z,101352.69
2023-01-19T07:25:50.349Z,101352.50
2023-01-19T07:28:19.972Z,101353.94
2023-01-19T07:30:53.539Z,101335.50
2023-01-19T07:33:25.262Z,101346.84
2023-01-19T07:35:55.283Z,101354.47
2023-01-19T07:38:25.919Z,101350.75
2023-01-19T07:41:02.513Z,101358.00
2023-01-19T07:43:33.275Z,101360.25
2023-01-19T07:46:04.350Z,101365.28
2023-01-19T07:48:33.709Z,101368.69
2023-01-19T07:51:06.394Z,101372.38
2023-01-19T07:53:35.548Z,101382.22
2023-01-19T07:56:06.918Z,101383.34
2023-01-19T07:58:36.048Z,101383.69
2023-01-19T08:01:10.482Z,101387.38
2023-01-19T08:03:40.355Z,101387.25
2023-01-19T08:06:18.827Z,101393.53
2023-01-19T08:08:47.804Z,101400.78
2023-01-19T08:11:16.966Z,101401.94
2023-01-19T08:13:46.462Z,101412.56
2023-01-19T08:16:15.414Z,101410.78
2023-01-19T08:18:47.747Z,101409.53
2023-01-19T08:21:20.108Z,101419.81
2023-01-19T08:23:57.041Z,101422.56
2023-01-19T08:26:33.805Z,101427.41
2023-01-19T08:29:03.893Z,101435.97
2023-01-19T08:31:39.167Z,101432.09
2023-01-19T08:34:09.158Z,101439.53
2023-01-19T08:36:38.265Z,101456.66
2023-01-19T08:39:07.688Z,101450.84
2023-01-19T08:41:36.779Z,101453.09
2023-01-19T08:44:06.140Z,101472.31
2023-01-19T08:46:35.173Z,101478.59
2023-01-19T08:49:07.546Z,101487.28
2023-01-19T08:51:36.891Z,101486.84
2023-01-19T08:54:06.302Z,101496.69
2023-01-19T08:56:35.591Z,101496.84
2023-01-19T08:59:09.943Z,101494.75
2023-01-19T09:01:40.440Z,101503.78
2023-01-19T09:04:18.649Z,101510.25
2023-01-19T09:06:50.540Z,101512.50
2023-01-19T09:09:19.591Z,101511.22
2023-01-19T09:11:54.728Z,101520.03
2023-01-19T09:14:26.309Z,101516.88
2023-01-19T09:16:57.396Z,101520.03
2023-01-19T09:19:29.174Z,101525.16
2023-01-19T09:21:59.990Z,101530.06
2023-01-19T09:24:31.772Z,101530.53
2023-01-19T09:27:01.880Z,101531.19
2023-01-19T09:29:31.557Z,101524.91
2023-01-19T09:32:00.699Z,101527.00
2023-01-19T09:34:29.890Z,101527.81
2023-01-19T09:37:04.656Z,101536.22
2023-01-19T09:39:33.645Z,101527.22
2023-01-19T09:42:25.541Z,101534.63
2023-01-19T09:44:55.451Z,101537.06
2023-01-19T09:47:30.781Z,101542.19
2023-01-19T09:50:06.651Z,101545.13
2023-01-19T09:52:38.597Z,101552.56
2023-01-19T09:55:24.089Z,101560.31
2023-01-19T09:57:57.374Z,101560.66
2023-01-19T10:00:29.456Z,101573.53
2023-01-19T10:03:11.435Z,101582.25
2023-01-19T10:06:04.799Z,101585.81
2023-01-19T10:08:48.116Z,101583.88
2023-01-19T10:11:51.538Z,101591.00
2023-01-19T10:15:12.240Z,101589.03
2023-01-19T10:18:02.823Z,101595.53
2023-01-19T10:20:38.511Z,101597.78
2023-01-19T10:23:24.648Z,101611.50
2023-01-19T10:25:55.075Z,101617.94
2023-01-19T10:28:27.725Z,101620.53
2023-01-19T10:30:57.191Z,101615.19
2023-01-19T10:33:26.319Z,101631.66
2023-01-19T10:35:55.367Z,101633.91
2023-01-19T10:38:24.360Z,101631.28
2023-01-19T10:41:33.659Z,101626.91
2023-01-19T10:44:05.167Z,101629.97
2023-01-19T10:46:51.511Z,101639.97
2023-01-19T10:49:32.127Z,101635.75
2023-01-19T10:52:01.667Z,101633.16
2023-01-19T10:54:33.526Z,101636.03
2023-01-19T10:57:11.360Z,101634.91
2023-01-19T10:59:46.033Z,101645.22
2023-01-19T11:02:33.745Z,101650.50
2023-01-19T11:05:26.508Z,101663.09
2023-01-19T11:07:56.127Z,101672.00
2023-01-19T11:10:27.936Z,101673.47
2023-01-19T11:13:02.097Z,101673.09
2023-01-19T11:15:41.365Z,101673.88
2023-01-19T11:18:23.897Z,101669.97
2023-01-19T11:20:55.527Z,101683.50
2023-01-19T11:23:30.577Z,101679.34
2023-01-19T11:26:06.340Z,101689.69
2023-01-19T11:28:37.312Z,101689.69
2023-01-19T11:31:12.388Z,101690.59
2023-01-19T11:33:53.827Z,101698.50
2023-01-19T11:36:26.294Z,101708.50
2023-01-19T11:39:25.606Z,101710.94
2023-01-19T11:42:01.060Z,101714.00
2023-01-19T11:44:45.960Z,101709.47
2023-01-19T11:47:41.742Z,101707.22
2023-01-19T11:50:17.005Z,101703.41
2023-01-19T11:53:17.352Z,101710.66
2023-01-19T11:56:00.702Z,101723.09
2023-01-19T11:58:31.349Z,101729.16
2023-01-19T12:01:07.394Z,101733.03
2023-01-19T12:03:43.454Z,101734.31
2023-01-19T12:06:22.671Z,101735.28
2023-01-19T12:08:57.722Z,101737.72
2023-01-19T12:11:33.369Z,101740.59
2023-01-19T12:14:03.284Z,101738.16
2023-01-19T12:16:35.851Z,101732.78
2023-01-19T12:19:55.000Z,101744.50
2023-01-19T12:22:25.396Z,101740.16
2023-01-19T12:25:04.913Z,101746.13
2023-01-19T12:27:36.557Z,101749.00
2023-01-19T12:30:07.347Z,101741.28
2023-01-19T12:32:40.460Z,101752.25
2023-01-19T12:35:29.793Z,101761.59
2023-01-19T12:37:58.935Z,101771.66
2023-01-19T12:40:29.992Z,101772.34
2023-01-19T12:43:09.435Z,101774.16
2023-01-19T12:45:40.636Z,101776.72
2023-01-19T12:48:26.199Z,101788.59
2023-01-19T12:50:55.135Z,101787.78
2023-01-19T12:53:24.165Z,101785.91
2023-01-19T12:56:01.844Z,101799.16
2023-01-19T12:58:31.181Z,101797.44
2023-01-19T13:01:22.471Z,101795.97
2023-01-19T13:04:34.984Z,101797.69
2023-01-19T13:07:06.715Z,101799.16
2023-01-19T13:09:37.815Z,101805.03
2023-01-19T13:12:16.109Z,101815.44
2023-01-19T13:14:48.570Z,101821.38
2023-01-19T13:17:48.977Z,101829.78
2023-01-19T13:20:23.969Z,101817.31
2023-01-19T13:23:20.725Z,101813.22
2023-01-19T13:25:59.889Z,101821.97
2023-01-19T13:28:40.890Z,101821.88
2023-01-19T13:31:10.924Z,101814.56
2023-01-19T13:33:49.095Z,101821.94
2023-01-19T13:36:24.049Z,101828.41
2023-01-19T13:38:57.902Z,101824.41
2023-01-19T13:41:30.584Z,101830.91
2023-01-19T13:44:08.497Z,101830.69
2023-01-19T13:46:39.461Z,101839.63
2023-01-19T13:49:29.721Z,101831.91
2023-01-19T13:52:14.699Z,101840.00
2023-01-19T13:54:54.965Z,101837.75
2023-01-19T13:57:28.971Z,101844.22
2023-01-19T14:00:13.555Z,101849.75
2023-01-19T14:03:00.190Z,101862.13
2023-01-19T14:05:31.171Z,101852.78
2023-01-19T14:08:12.429Z,101863.63
2023-01-19T14:11:04.583Z,101878.69
2023-01-19T14:13:37.952Z,101875.19
2023-01-19T14:16:13.423Z,101883.34
2023-01-19T14:18:42.945Z,101890.94
2023-01-19T14:21:14.485Z,101888.03
2023-01-19T14:23:50.204Z,101889.44
2023-01-19T14:26:39.185Z,101895.19
2023-01-19T14:29:38.229Z,101894.75
2023-01-19T14:32:21.792Z,101899.88
2023-01-19T14:35:15.718Z,101904.84
2023-01-19T14:37:50.501Z,101909.31
2023-01-19T14:40:25.230Z,101909.38
2023-01-19T14:43:07.015Z,101921.38
2023-01-19T14:45:40.237Z,101909.19
2023-01-19T14:48:21.948Z,101918.97
2023-01-19T14:51:02.689Z,101919.47
2023-01-19T14:53:39.146Z,101916.81
2023-01-19T14:56:11.433Z,101923.63
2023-01-19T14:58:42.420Z,101935.59
2023-01-19T15:01:11.676Z,101937.41
2023-01-19T15:03:45.393Z,101935.56
2023-01-19T15:06:17.804Z,101939.41
2023-01-19T15:08:48.128Z,101943.44
2023-01-19T15:11:27.749Z,101953.66
2023-01-19T15:13:58.745Z,101952.84
2023-01-19T15:16:30.645Z,101948.56
2023-01-19T15:19:00.238Z,101956.09
2023-01-19T15:21:29.289Z,101961.16
2023-01-19T15:23:59.259Z,101944.84
2023-01-19T15:26:28.783Z,101945.63
2023-01-19T15:28:57.778Z,101947.94
2023-01-19T15:31:27.565Z,101951.91
2023-01-19T15:33:56.946Z,101940.69
2023-01-19T15:36:25.982Z,101961.28
2023-01-19T15:38:55.163Z,101949.44
2023-01-19T15:41:27.829Z,101965.09
2023-01-19T15:43:57.184Z,101978.63
2023-01-19T15:46:29.299Z,101982.84
2023-01-19T15:48:59.161Z,101979.91
2023-01-19T15:51:31.034Z,101975.88
2023-01-19T15:54:01.217Z,101977.63
2023-01-19T15:56:32.318Z,101982.78
2023-01-19T15:59:02.889Z,101993.44
2023-01-19T16:01:35.897Z,102000.84
2023-01-19T16:04:07.966Z,101999.72
2023-01-19T16:06:37.179Z,102005.34
2023-01-19T16:09:06.365Z,102000.09
2023-01-19T16:11:36.352Z,102014.97
2023-01-19T16:14:13.963Z,102014.56
2023-01-19T16:17:00.500Z,102021.50
2023-01-19T16:19:31.093Z,102029.13
2023-01-19T16:22:06.139Z,102032.06
2023-01-19T16:24:38.043Z,102039.19
2023-01-19T16:27:10.750Z,102050.81
2023-01-19T16:29:39.846Z,102061.91
2023-01-19T16:32:08.740Z,102063.63
2023-01-19T16:34:40.610Z,102086.78
2023-01-19T16:37:09.748Z,102083.72
2023-01-19T16:39:38.971Z,102089.84
2023-01-19T16:42:17.728Z,102082.69
2023-01-19T16:44:46.738Z,102081.22
2023-01-19T16:47:18.476Z,102090.78
2023-01-19T16:49:47.495Z,102099.50
2023-01-19T16:52:16.493Z,102107.09
2023-01-19T16:54:45.666Z,102108.44
2023-01-19T16:57:15.592Z,102104.53
2023-01-19T16:59:48.267Z,102113.63
2023-01-19T17:02:18.177Z,102118.88
2023-01-19T17:05:08.380Z,102112.38
2023-01-19T17:07:37.506Z,102110.66
2023-01-19T17:10:07.153Z,102111.91
2023-01-19T17:12:36.127Z,102119.69
2023-01-19T17:15:08.413Z,102110.53
2023-01-19T17:17:37.538Z,102117.47
2023-01-19T17:20:07.314Z,102123.25
2023-01-19T17:22:36.335Z,102125.31
2023-01-19T17:25:05.645Z,102125.41
2023-01-19T17:27:37.735Z,102125.94
2023-01-19T17:30:07.490Z,102129.78
2023-01-19T17:32:39.571Z,102129.31
2023-01-19T17:35:08.816Z,102126.31
2023-01-19T17:37:37.898Z,102130.50
2023-01-19T17:40:07.676Z,102134.75
2023-01-19T17:42:41.316Z,102131.78
2023-01-19T17:45:11.950Z,102150.84
2023-01-19T17:47:41.047Z,102140.22
2023-01-19T17:50:10.567Z,102143.47
2023-01-19T17:52:39.706Z,102146.91
2023-01-19T17:55:09.168Z,102158.13
2023-01-19T17:57:38.520Z,102154.66
2023-01-19T18:00:08.889Z,102159.66
2023-01-19T18:02:44.174Z,102171.25
2023-01-19T18:05:15.223Z,102174.69
2023-01-19T18:07:44.467Z,102184.16
2023-01-19T18:10:17.174Z,102187.13
2023-01-19T18:12:46.538Z,102199.28
2023-01-19T18:15:16.906Z,102200.00
2023-01-19T18:17:49.230Z,102212.31
2023-01-19T18:20:18.514Z,102222.47
2023-01-19T18:22:47.471Z,102228.97
2023-01-19T18:25:16.601Z,102236.91
2023-01-19T18:27:45.516Z,102240.34
2023-01-19T18:30:15.178Z,102247.88
2023-01-19T18:32:44.261Z,102257.69
2023-01-19T18:35:13.374Z,102256.91
2023-01-19T18:37:45.528Z,102258.88
2023-01-19T18:40:15.396Z,102262.84
2023-01-19T18:42:46.505Z,102274.63
2023-01-19T18:45:18.289Z,102287.19
2023-01-19T18:47:47.302Z,102290.56
2023-01-19T18:50:19.361Z,102295.94
2023-01-19T18:52:52.099Z,102296.44
2023-01-19T18:55:21.129Z,102295.97
2023-01-19T18:57:50.040Z,102305.50
2023-01-19T19:00:19.774Z,102312.75
2023-01-19T19:02:48.683Z,102320.75
2023-01-19T19:05:17.671Z,102318.56
2023-01-19T19:07:46.557Z,102321.75
2023-01-19T19:10:15.631Z,102318.88
2023-01-19T19:12:44.530Z,102317.22
2023-01-19T19:15:19.458Z,102318.50
2023-01-19T19:17:48.645Z,102321.03
2023-01-19T19:20:18.394Z,102329.56
2023-01-19T19:23:22.639Z,102319.22
2023-01-19T19:25:55.938Z,102335.72
2023-01-19T19:28:50.269Z,102327.69
2023-01-19T19:32:10.409Z,102341.59
2023-01-19T19:34:39.405Z,102359.38
2023-01-19T19:37:08.999Z,102357.63
2023-01-19T19:39:39.130Z,102365.41
2023-01-19T19:42:08.241Z,102357.75
2023-01-19T19:44:37.429Z,102363.22
2023-01-19T19:47:06.651Z,102374.84
2023-01-19T19:49:35.562Z,102377.19
2023-01-19T19:52:04.560Z,102383.19
2023-01-19T19:54:33.511Z,102384.13
2023-01-19T19:57:02.383Z,102394.56
2023-01-19T19:59:31.296Z,102391.22
2023-01-19T20:02:00.334Z,102380.25
2023-01-19T20:04:29.416Z,102387.50
2023-01-19T20:06:59.995Z,102384.97
2023-01-19T20:09:29.073Z,102382.72
2023-01-19T20:12:00.916Z,102381.03
2023-01-19T20:14:29.913Z,102377.34
2023-01-19T20:16:58.879Z,102378.63
2023-01-19T20:19:32.541Z,102379.47
2023-01-19T20:22:04.670Z,102396.03
2023-01-19T20:24:33.659Z,102404.00
2023-01-19T20:27:05.201Z,102401.56
2023-01-19T20:29:36.125Z,102397.84
2023-01-19T20:32:05.530Z,102406.94
2023-01-19T20:45:36.790Z,102398.94
2023-01-19T20:48:08.972Z,102398.38
2023-01-19T20:50:40.696Z,102400.66
2023-01-19T20:53:09.737Z,102396.75
2023-01-19T20:56:20.248Z,102393.16
2023-01-19T20:59:02.519Z,102403.03
2023-01-19T21:01:32.619Z,102400.91
2023-01-19T21:04:01.950Z,102394.13
2023-01-19T21:06:38.279Z,102395.75
2023-01-19T21:09:08.582Z,102391.44
2023-01-19T21:11:41.833Z,102390.09
2023-01-19T21:14:16.146Z,102392.91
2023-01-19T21:16:59.978Z,102382.78
2023-01-19T21:19:29.284Z,102396.94
2023-01-19T21:22:00.949Z,102386.16
2023-01-19T21:24:30.347Z,102396.25
2023-01-19T21:27:00.563Z,102381.09
2023-01-19T21:29:32.673Z,102381.28
2023-01-19T21:32:03.478Z,102375.31
2023-01-19T21:34:35.852Z,102375.75
2023-01-19T21:37:24.724Z,102378.44
2023-01-19T21:40:10.203Z,102380.75
2023-01-19T21:42:40.551Z,102382.47
2023-01-19T21:45:15.476Z,102386.47
2023-01-19T21:47:44.675Z,102377.47
2023-01-19T21:50:15.044Z,102377.56
2023-01-19T21:52:47.946Z,102375.94
2023-01-19T21:55:17.155Z,102386.78
2023-01-19T21:57:46.151Z,102385.91
2023-01-19T22:00:15.757Z,102388.34
2023-01-19T22:02:49.451Z,102393.25
2023-01-19T22:05:36.351Z,102383.06
2023-01-19T22:08:11.428Z,102382.78
2023-01-19T22:10:40.479Z,102379.41
2023-01-19T22:13:10.255Z,102385.25
2023-01-19T22:15:39.181Z,102388.72
2023-01-19T22:18:08.172Z,102383.84
2023-01-19T22:20:37.252Z,102391.94
2023-01-19T22:23:06.299Z,102390.22
2023-01-19T22:25:37.723Z,102387.56
2023-01-19T22:28:06.839Z,102385.44
2023-01-19T22:30:36.126Z,102396.22
2023-01-19T22:33:05.364Z,102401.97
2023-01-19T22:35:34.328Z,102396.47
2023-01-19T22:38:05.623Z,102407.53
2023-01-19T22:40:34.686Z,102408.13
2023-01-19T22:43:04.639Z,102422.53
2023-01-19T22:45:33.927Z,102426.09
2023-01-19T23:05:48.422Z,102431.72
2023-01-19T23:10:13.943Z,102428.31
2023-01-19T23:12:43.273Z,102424.66
2023-01-19T23:15:35.179Z,102434.59
2023-01-19T23:18:07.487Z,102444.00
2023-01-19T23:20:37.798Z,102443.25
2023-01-19T23:23:07.242Z,102448.13
2023-01-19T23:25:37.398Z,102454.53
2023-01-19T23:28:06.655Z,102454.66
2023-01-19T23:30:38.894Z,102455.25
2023-01-19T23:33:08.190Z,102458.09
2023-01-19T23:35:37.374Z,102451.56
2023-01-19T23:38:07.274Z,102448.78
2023-01-19T23:40:40.531Z,102449.81
2023-01-19T23:43:09.780Z,102455.00
2023-01-19T23:45:39.394Z,102456.94
2023-01-19T23:48:16.279Z,102463.91
2023-01-19T23:55:02.347Z,102468.03
2023-01-19T23:58:41.578Z,102459.59
